»·PEaware :: N828SP KWHP-KBFL

N828SP :: KWHP-KBFL

FLIGHT INFORMATION

Flight Status: Arrived
Operator: Privately registered:
United States
More flights under this callsign
Pilot: Jon S. (43478)
Aircraft: CESSNA 172 SKYHAWK
(C172)
More flights by this aircraft type
Origin: KWHP Whiteman
United States
Destination: KBFL Meadows
United States
More flights between these airports :: More routes between these airports
Route:
File this flight plan on PilotEdge
Remarks:
Altitude:
(Current/Filed)
8,500ft
Speed:
(Current/Filed)
0kts
Departed: 31-Aug-23 02:56 PM
Arrived: 31-Aug-23 03:45 PM
Distance/Time
Traveled:
77nm/0:49
Distance/Time
To Go:
Arrived

Flight Plot

Page will automatically refresh every two minutes.


Map Options




Map Legend


Flown Route
Filed Route
Departure Airport
Arrival Airport
Navaid (VOR, NDB)
Fix

Horizontal Profiles

Position Reports

Time Latitude Longitude Heading Altitude Ground
Speed
31-Aug-23 14:54 34.255633 -118.408942 148 970ft 0kts
31-Aug-23 14:55 34.255633 -118.408942 148 970ft 0kts
31-Aug-23 14:55 34.257284 -118.411340 320 979ft 62kts
31-Aug-23 14:56 34.274601 -118.429826 323 1722ft 85kts
31-Aug-23 14:57 34.291881 -118.447895 322 2542ft 84kts
31-Aug-23 14:59 34.313360 -118.468297 330 3479ft 89kts
31-Aug-23 15:00 34.335462 -118.486397 329 4304ft 92kts
31-Aug-23 15:00 34.355038 -118.497281 337 4964ft 92kts
31-Aug-23 15:01 34.374336 -118.508156 334 5885ft 68kts
31-Aug-23 15:02 34.392639 -118.516729 330 6520ft 72kts
31-Aug-23 15:03 34.411199 -118.526390 330 7155ft 72kts
31-Aug-23 15:05 34.433975 -118.538651 326 7840ft 77kts
31-Aug-23 15:05 34.450490 -118.547049 330 8331ft 78kts
31-Aug-23 15:06 34.474928 -118.558861 329 8542ft 105kts
31-Aug-23 15:07 34.501500 -118.576097 323 8582ft 107kts
31-Aug-23 15:08 34.526807 -118.596527 314 8580ft 108kts
31-Aug-23 15:09 34.552280 -118.618454 326 8680ft 111kts
31-Aug-23 15:10 34.577628 -118.641139 322 8805ft 112kts
31-Aug-23 15:11 34.602360 -118.665265 323 8755ft 115kts
31-Aug-23 15:12 34.628130 -118.687875 324 8711ft 115kts
31-Aug-23 15:13 34.653331 -118.711429 322 8667ft 114kts
31-Aug-23 15:14 34.678873 -118.735018 323 8625ft 114kts
31-Aug-23 15:15 34.705307 -118.757429 324 8585ft 114kts
31-Aug-23 15:16 34.732985 -118.779799 330 8546ft 114kts
31-Aug-23 15:17 34.761177 -118.797575 335 8511ft 114kts
31-Aug-23 15:18 34.789654 -118.814493 337 8478ft 114kts
31-Aug-23 15:19 34.821479 -118.826878 337 8262ft 139kts
31-Aug-23 15:20 34.856791 -118.838343 337 8330ft 134kts
31-Aug-23 15:21 34.891982 -118.852296 337 8464ft 133kts
31-Aug-23 15:22 34.926675 -118.866299 331 8552ft 128kts
31-Aug-23 15:23 34.960767 -118.880629 334 8575ft 128kts
31-Aug-23 15:24 34.994850 -118.894746 328 8368ft 124kts
31-Aug-23 15:25 35.028773 -118.906832 334 8163ft 124kts
31-Aug-23 15:26 35.061305 -118.918829 334 7817ft 121kts
31-Aug-23 15:27 35.093749 -118.928480 335 7314ft 119kts
31-Aug-23 15:28 35.125538 -118.938742 338 6693ft 119kts
31-Aug-23 15:29 35.158077 -118.944771 345 5892ft 117kts
31-Aug-23 15:30 35.189932 -118.947659 344 5041ft 112kts
31-Aug-23 15:31 35.219566 -118.955196 337 4221ft 106kts
31-Aug-23 15:32 35.246280 -118.969090 329 3536ft 102kts
31-Aug-23 15:33 35.275178 -118.973546 350 3315ft 103kts
31-Aug-23 15:34 35.304261 -118.971644 0 3402ft 108kts
31-Aug-23 15:35 35.332985 -118.965286 4 3359ft 104kts
31-Aug-23 15:36 35.361355 -118.957124 20 3326ft 109kts
31-Aug-23 15:37 35.375400 -118.924673 112 3371ft 125kts
31-Aug-23 15:38 35.360874 -118.935890 269 3182ft 93kts
31-Aug-23 15:39 35.363276 -118.967817 295 2701ft 100kts
31-Aug-23 15:40 35.381266 -118.993643 315 2347ft 98kts
31-Aug-23 15:41 35.401000 -119.016726 316 1918ft 87kts
31-Aug-23 15:42 35.417786 -119.037069 317 1105ft 84kts
31-Aug-23 15:43 35.432921 -119.055140 315 490ft 58kts
31-Aug-23 15:44 35.436568 -119.057837 50 492ft 0kts
31-Aug-23 15:45 35.434653 -119.054889 135 491ft 20kts
31-Aug-23 15:46 35.434796 -119.053423 97 497ft 0kts

Navigation Log

Ident Type
Flight plan parsing failed, navigation log unavailable